createdAt,value
2023-02-08T00:01:07.329Z,26.20
2023-02-08T00:03:34.907Z,26.20
2023-02-08T00:06:02.720Z,26.20
2023-02-08T00:08:30.630Z,26.20
2023-02-08T00:10:59.042Z,26.20
2023-02-08T00:13:26.747Z,26.20
2023-02-08T00:15:55.170Z,26.20
2023-02-08T00:18:23.312Z,26.20
2023-02-08T00:20:51.911Z,26.20
2023-02-08T00:23:19.705Z,26.20
2023-02-08T00:25:47.357Z,26.20
2023-02-08T00:28:16.474Z,26.20
2023-02-08T00:30:44.908Z,26.20
2023-02-08T00:33:13.588Z,26.30
2023-02-08T00:35:43.295Z,26.30
2023-02-08T00:38:11.843Z,26.30
2023-02-08T00:40:40.702Z,26.40
2023-02-08T00:43:09.414Z,26.40
2023-02-08T00:45:37.020Z,26.40
2023-02-08T00:48:04.717Z,26.40
2023-02-08T00:50:32.372Z,26.40
2023-02-08T00:53:15.542Z,26.50
2023-02-08T00:55:44.517Z,26.50
2023-02-08T00:58:13.702Z,26.60
2023-02-08T01:00:41.653Z,26.60
2023-02-08T01:03:09.641Z,26.70
2023-02-08T01:05:40.447Z,26.80
2023-02-08T01:08:08.046Z,26.80
2023-02-08T01:10:42.761Z,26.90
2023-02-08T01:13:10.568Z,26.90
2023-02-08T01:15:38.970Z,27.00
2023-02-08T01:18:07.476Z,27.00
2023-02-08T01:20:36.036Z,27.10
2023-02-08T01:23:04.484Z,27.10
2023-02-08T01:25:32.075Z,27.20
2023-02-08T01:28:00.676Z,27.20
2023-02-08T01:30:28.544Z,27.20
2023-02-08T01:32:56.961Z,27.20
2023-02-08T01:35:25.662Z,27.30
2023-02-08T01:37:54.092Z,27.30
2023-02-08T01:40:24.815Z,27.40
2023-02-08T01:42:53.618Z,27.30
2023-02-08T01:45:26.558Z,27.40
2023-02-08T01:48:15.124Z,27.40
2023-02-08T01:50:51.071Z,27.40
2023-02-08T01:53:19.036Z,27.40
2023-02-08T01:55:53.249Z,27.40
2023-02-08T01:58:21.576Z,27.40
2023-02-08T02:00:49.377Z,27.40
2023-02-08T02:03:18.690Z,27.40
2023-02-08T02:05:48.163Z,27.40
2023-02-08T02:08:16.119Z,27.40
2023-02-08T02:10:44.299Z,27.40
2023-02-08T02:13:18.118Z,27.40
2023-02-08T02:15:46.122Z,27.50
2023-02-08T02:18:16.742Z,27.50
2023-02-08T02:21:04.622Z,27.50
2023-02-08T02:23:44.439Z,27.50
2023-02-08T02:26:15.343Z,27.60
2023-02-08T02:29:03.775Z,27.70
2023-02-08T02:31:42.123Z,27.70
2023-02-08T02:34:28.387Z,27.80
2023-02-08T02:37:16.306Z,27.90
2023-02-08T02:39:45.978Z,28.00
2023-02-08T02:42:51.064Z,28.10
2023-02-08T02:45:21.591Z,28.10
2023-02-08T02:47:49.172Z,28.20
2023-02-08T02:50:31.865Z,28.30
2023-02-08T02:53:11.368Z,28.40
2023-02-08T02:55:42.702Z,28.40
2023-02-08T02:58:13.998Z,28.50
2023-02-08T03:00:42.246Z,28.60
2023-02-08T03:03:36.280Z,28.60
2023-02-08T03:06:06.737Z,28.70
2023-02-08T03:08:34.312Z,28.80
2023-02-08T03:11:20.364Z,28.90
2023-02-08T03:13:51.089Z,29.00
2023-02-08T03:16:21.302Z,29.10
2023-02-08T03:19:18.532Z,29.10
2023-02-08T03:21:57.545Z,29.10
2023-02-08T03:24:29.816Z,29.20
2023-02-08T03:26:57.540Z,29.30
2023-02-08T03:29:38.783Z,29.30
2023-02-08T03:32:10.746Z,29.40
2023-02-08T03:34:41.285Z,29.50
2023-02-08T03:37:12.547Z,29.50
2023-02-08T03:39:41.113Z,29.60
2023-02-08T03:42:15.037Z,29.70
2023-02-08T03:44:45.471Z,29.80
2023-02-08T03:47:21.380Z,29.80
2023-02-08T03:49:56.434Z,29.90
2023-02-08T03:52:25.853Z,29.90
2023-02-08T03:55:04.559Z,30.00
2023-02-08T03:57:54.572Z,30.10
2023-02-08T04:00:22.750Z,30.10
2023-02-08T04:03:01.268Z,30.20
2023-02-08T04:05:29.141Z,30.20
2023-02-08T04:07:56.873Z,30.30
2023-02-08T04:10:24.578Z,30.40
2023-02-08T04:12:52.349Z,30.40
2023-02-08T04:15:20.077Z,30.40
2023-02-08T04:17:48.828Z,30.50
2023-02-08T04:20:16.656Z,30.50
2023-02-08T04:22:47.793Z,30.60
2023-02-08T04:25:16.039Z,30.70
2023-02-08T04:27:43.799Z,30.80
2023-02-08T04:30:12.266Z,30.80
2023-02-08T04:32:40.256Z,31.00
2023-02-08T04:35:08.329Z,31.10
2023-02-08T04:37:37.121Z,31.10
2023-02-08T04:40:04.965Z,31.10
2023-02-08T04:42:32.639Z,31.10
2023-02-08T04:45:00.319Z,31.20
2023-02-08T04:47:29.902Z,31.20
2023-02-08T04:49:57.939Z,31.30
2023-02-08T04:52:25.906Z,31.30
2023-02-08T04:54:53.818Z,31.40
2023-02-08T04:57:21.808Z,31.40
2023-02-08T04:59:50.432Z,31.40
2023-02-08T05:02:18.519Z,31.40
2023-02-08T05:04:47.436Z,31.50
2023-02-08T05:07:16.969Z,31.50
2023-02-08T05:09:44.811Z,31.60
2023-02-08T05:12:12.435Z,31.60
2023-02-08T05:14:40.148Z,31.70
2023-02-08T05:17:08.335Z,31.70
2023-02-08T05:19:36.248Z,31.70
2023-02-08T05:22:04.697Z,31.70
2023-02-08T05:24:32.473Z,31.80
2023-02-08T05:27:00.014Z,31.80
2023-02-08T05:29:28.560Z,31.90
2023-02-08T05:31:56.133Z,32.00
2023-02-08T05:34:25.120Z,32.10
2023-02-08T05:36:52.909Z,32.20
2023-02-08T05:39:20.917Z,32.30
2023-02-08T05:41:50.155Z,32.30
2023-02-08T05:44:18.520Z,32.30
2023-02-08T05:46:46.074Z,32.40
2023-02-08T05:49:16.174Z,32.50
2023-02-08T05:51:44.313Z,32.60
2023-02-08T05:54:12.298Z,32.60
2023-02-08T05:56:40.108Z,32.70
2023-02-08T05:59:08.292Z,32.70
2023-02-08T06:01:35.907Z,32.60
2023-02-08T06:04:04.602Z,32.60
2023-02-08T06:06:32.209Z,32.60
2023-02-08T06:09:02.772Z,32.60
2023-02-08T06:11:31.926Z,32.60
2023-02-08T06:14:01.806Z,32.60
2023-02-08T06:16:32.274Z,32.60
2023-02-08T06:19:00.740Z,32.60
2023-02-08T06:21:29.480Z,32.60
2023-02-08T06:23:57.114Z,32.70
2023-02-08T06:26:24.751Z,32.80
2023-02-08T06:28:52.595Z,32.80
2023-02-08T06:31:20.237Z,32.90
2023-02-08T06:33:47.888Z,32.90
2023-02-08T06:36:15.533Z,32.90
2023-02-08T06:38:43.951Z,32.90
2023-02-08T06:41:12.091Z,32.90
2023-02-08T06:43:42.087Z,32.80
2023-02-08T06:46:09.889Z,32.80
2023-02-08T06:48:40.574Z,32.80
2023-02-08T06:51:08.328Z,32.70
2023-02-08T06:53:35.917Z,32.70
2023-02-08T06:56:04.338Z,32.60
2023-02-08T06:58:31.893Z,32.60
2023-02-08T07:00:59.786Z,32.60
2023-02-08T07:03:30.407Z,32.50
2023-02-08T07:06:04.998Z,32.50
2023-02-08T07:08:34.391Z,32.50
2023-02-08T07:11:06.706Z,32.60
2023-02-08T07:13:35.254Z,32.50
2023-02-08T07:16:04.093Z,32.50
2023-02-08T07:18:31.862Z,32.40
2023-02-08T07:21:00.105Z,32.40
2023-02-08T07:23:27.725Z,32.40
2023-02-08T07:26:02.877Z,32.40
2023-02-08T07:28:30.834Z,32.30
2023-02-08T07:31:04.678Z,32.30
2023-02-08T07:33:32.360Z,32.20
2023-02-08T07:35:59.978Z,32.20
2023-02-08T07:38:27.703Z,32.10
2023-02-08T07:41:02.488Z,32.10
2023-02-08T07:43:30.805Z,32.00
2023-02-08T07:45:59.369Z,32.00
2023-02-08T07:48:26.994Z,32.00
2023-02-08T07:50:55.829Z,31.90
2023-02-08T07:53:24.733Z,31.90
2023-02-08T07:55:54.438Z,31.90
2023-02-08T07:58:22.481Z,31.80
2023-02-08T08:00:54.176Z,31.90
2023-02-08T08:03:23.634Z,31.90
2023-02-08T08:05:54.163Z,31.90
2023-02-08T08:08:25.288Z,31.90
2023-02-08T08:10:53.889Z,32.00
2023-02-08T08:13:22.082Z,32.00
2023-02-08T08:15:52.206Z,32.00
2023-02-08T08:18:20.933Z,32.00
2023-02-08T08:20:50.235Z,32.00
2023-02-08T08:23:19.845Z,32.00
2023-02-08T08:25:48.328Z,32.10
2023-02-08T08:28:16.381Z,32.10
2023-02-08T08:30:45.893Z,32.10
2023-02-08T08:33:17.085Z,32.10
2023-02-08T08:35:47.481Z,32.20
2023-02-08T08:38:15.947Z,32.20
2023-02-08T08:40:44.311Z,32.20
2023-02-08T08:43:12.256Z,32.30
2023-02-08T08:45:40.052Z,32.20
2023-02-08T08:48:11.027Z,32.30
2023-02-08T08:50:40.121Z,32.30
2023-02-08T08:53:08.143Z,32.30
2023-02-08T08:55:35.830Z,32.20
2023-02-08T08:58:03.684Z,32.20
2023-02-08T09:00:31.422Z,32.20
2023-02-08T09:02:59.974Z,32.20
2023-02-08T09:05:27.837Z,32.20
2023-02-08T09:07:55.638Z,32.10
2023-02-08T09:10:24.062Z,32.10
2023-02-08T09:12:54.162Z,32.10
2023-02-08T09:15:22.077Z,32.10
2023-02-08T09:17:49.573Z,32.10
2023-02-08T09:20:18.110Z,32.10
2023-02-08T09:22:46.508Z,32.10
2023-02-08T09:25:15.266Z,32.00
2023-02-08T09:27:46.101Z,32.00
2023-02-08T09:30:14.577Z,32.00
2023-02-08T09:32:43.392Z,32.00
2023-02-08T09:35:13.719Z,32.00
2023-02-08T09:37:42.244Z,32.00
2023-02-08T09:40:35.867Z,32.00
2023-02-08T09:43:19.052Z,32.00
2023-02-08T09:46:02.780Z,31.90
2023-02-08T09:48:39.182Z,31.90
2023-02-08T09:51:23.333Z,32.00
2023-02-08T09:53:55.916Z,31.90
2023-02-08T09:56:44.996Z,31.90
2023-02-08T09:59:18.629Z,31.90
2023-02-08T10:01:47.713Z,31.80
2023-02-08T10:04:19.313Z,31.80
2023-02-08T10:06:48.040Z,31.80
2023-02-08T10:09:26.151Z,31.80
2023-02-08T10:11:54.670Z,31.80
2023-02-08T10:14:32.769Z,31.70
2023-02-08T10:17:11.386Z,31.70
2023-02-08T10:20:00.332Z,31.60
2023-02-08T10:22:49.771Z,31.60
2023-02-08T10:25:25.164Z,31.60
2023-02-08T10:28:06.575Z,31.50
2023-02-08T10:30:38.262Z,31.50
2023-02-08T10:33:13.923Z,31.40
2023-02-08T10:35:45.433Z,31.40
2023-02-08T10:38:37.228Z,31.30
2023-02-08T10:41:16.430Z,31.30
2023-02-08T10:43:49.872Z,31.30
2023-02-08T10:46:20.115Z,31.20
2023-02-08T10:48:54.782Z,31.20
2023-02-08T10:51:22.628Z,31.20
2023-02-08T10:53:50.428Z,31.10
2023-02-08T10:56:25.515Z,31.00
2023-02-08T10:58:53.316Z,31.00
2023-02-08T11:01:20.946Z,31.00
2023-02-08T11:04:05.942Z,30.90
2023-02-08T11:06:33.524Z,30.90
2023-02-08T11:09:01.196Z,30.90
2023-02-08T11:11:34.407Z,30.80
2023-02-08T11:14:09.782Z,30.80
2023-02-08T11:16:38.654Z,30.80
2023-02-08T11:19:09.002Z,30.80
2023-02-08T11:21:39.467Z,30.80
2023-02-08T11:24:16.188Z,30.70
2023-02-08T11:26:43.989Z,30.70
2023-02-08T11:29:19.791Z,30.60
2023-02-08T11:31:57.816Z,30.60
2023-02-08T11:34:26.719Z,30.60
2023-02-08T11:36:54.498Z,30.60
2023-02-08T11:39:28.525Z,30.60
2023-02-08T11:41:57.382Z,30.60
2023-02-08T11:44:46.166Z,30.50
2023-02-08T11:47:16.683Z,30.50
2023-02-08T11:49:51.835Z,30.50
2023-02-08T11:52:20.948Z,30.40
2023-02-08T11:54:48.634Z,30.40
2023-02-08T11:57:20.809Z,30.40
2023-02-08T11:59:49.416Z,30.40
2023-02-08T12:02:29.146Z,30.40
2023-02-08T12:04:58.582Z,30.30
2023-02-08T12:07:32.265Z,30.30
2023-02-08T12:09:59.890Z,30.20
2023-02-08T12:12:27.454Z,30.20
2023-02-08T12:15:11.540Z,30.20
2023-02-08T12:17:39.027Z,30.20
2023-02-08T12:20:27.734Z,30.20
2023-02-08T12:23:10.691Z,30.10
2023-02-08T12:25:56.978Z,30.10
2023-02-08T12:28:47.902Z,30.10
2023-02-08T12:31:23.866Z,30.10
2023-02-08T12:34:01.929Z,30.00
2023-02-08T12:36:34.215Z,30.00
2023-02-08T12:39:38.958Z,30.00
2023-02-08T12:42:29.596Z,30.00
2023-02-08T12:45:00.281Z,30.00
2023-02-08T12:47:39.600Z,29.90
2023-02-08T12:50:27.386Z,29.90
2023-02-08T12:52:57.657Z,29.90
2023-02-08T12:55:34.446Z,29.80
2023-02-08T12:58:20.558Z,29.80
2023-02-08T13:00:49.202Z,29.80
2023-02-08T13:03:16.768Z,29.80
2023-02-08T13:06:01.271Z,29.80
2023-02-08T13:08:40.067Z,29.70
2023-02-08T13:11:19.828Z,29.70
2023-02-08T13:13:54.304Z,29.70
2023-02-08T13:16:23.939Z,29.70
2023-02-08T13:18:54.782Z,29.70
2023-02-08T13:21:29.005Z,29.70
2023-02-08T13:23:57.786Z,29.60
2023-02-08T13:26:28.259Z,29.60
2023-02-08T13:28:57.845Z,29.60
2023-02-08T13:31:29.116Z,29.60
2023-02-08T13:34:02.006Z,29.60
2023-02-08T13:36:29.956Z,29.50
2023-02-08T13:38:58.753Z,29.50
2023-02-08T13:41:28.226Z,29.50
2023-02-08T13:43:55.748Z,29.50
2023-02-08T13:46:25.512Z,29.50
2023-02-08T13:48:58.238Z,29.40
2023-02-08T13:51:32.002Z,29.40
2023-02-08T13:54:00.433Z,29.40
2023-02-08T13:56:44.281Z,29.40
2023-02-08T13:59:35.439Z,29.40
2023-02-08T14:02:24.336Z,29.40
2023-02-08T14:04:53.212Z,29.30
2023-02-08T14:07:23.923Z,29.30
2023-02-08T14:09:54.639Z,29.30
2023-02-08T14:12:34.603Z,29.30
2023-02-08T14:15:07.238Z,29.30
2023-02-08T14:17:35.303Z,29.30
2023-02-08T14:20:04.475Z,29.20
2023-02-08T14:22:37.218Z,29.20
2023-02-08T14:25:18.842Z,29.20
2023-02-08T14:27:51.500Z,29.20
2023-02-08T14:30:19.883Z,29.20
2023-02-08T14:33:13.750Z,29.10
2023-02-08T14:35:42.830Z,29.10
2023-02-08T14:38:32.024Z,29.10
2023-02-08T14:41:00.929Z,29.10
2023-02-08T14:43:30.136Z,29.10
2023-02-08T14:45:58.823Z,29.00
2023-02-08T14:48:26.542Z,29.00
2023-02-08T14:51:09.213Z,29.00
2023-02-08T14:53:36.787Z,28.90
2023-02-08T14:56:19.249Z,28.90
2023-02-08T14:58:52.490Z,28.90
2023-02-08T15:01:21.715Z,28.90
2023-02-08T15:03:50.725Z,28.90
2023-02-08T15:06:18.263Z,28.90
2023-02-08T15:08:53.500Z,28.80
2023-02-08T15:11:25.568Z,28.90
2023-02-08T15:13:54.788Z,28.80
2023-02-08T15:16:22.907Z,28.80
2023-02-08T15:18:51.483Z,28.70
2023-02-08T15:21:21.439Z,28.80
2023-02-08T15:24:22.681Z,28.80
2023-02-08T15:26:55.078Z,28.70
2023-02-08T15:29:30.049Z,28.70
2023-02-08T15:32:03.581Z,28.70
2023-02-08T15:34:31.944Z,28.70
2023-02-08T15:36:59.834Z,28.70
2023-02-08T15:39:38.813Z,28.60
2023-02-08T15:42:06.531Z,28.60
2023-02-08T15:44:35.196Z,28.60
2023-02-08T15:47:04.670Z,28.60
2023-02-08T15:49:32.572Z,28.60
2023-02-08T15:52:01.898Z,28.50
2023-02-08T15:54:29.591Z,28.50
2023-02-08T15:56:59.800Z,28.60
2023-02-08T15:59:28.590Z,28.50
2023-02-08T16:01:57.372Z,28.50
2023-02-08T16:04:26.245Z,28.50
2023-02-08T16:06:56.232Z,28.50
2023-02-08T16:09:28.596Z,28.50
2023-02-08T16:12:00.984Z,28.40
2023-02-08T16:14:31.196Z,28.40
2023-02-08T16:17:02.447Z,28.40
2023-02-08T16:19:31.079Z,28.40
2023-02-08T16:22:19.454Z,28.40
2023-02-08T16:24:48.066Z,28.40
2023-02-08T16:27:21.581Z,28.40
2023-02-08T16:29:49.339Z,28.40
2023-02-08T16:32:31.215Z,28.30
2023-02-08T16:34:59.842Z,28.30
2023-02-08T16:37:32.547Z,28.30
2023-02-08T16:40:02.612Z,28.30
2023-02-08T16:42:35.965Z,28.30
2023-02-08T16:45:10.455Z,28.30
2023-02-08T16:47:42.981Z,28.30
2023-02-08T16:50:11.799Z,28.20
2023-02-08T16:52:39.746Z,28.20
2023-02-08T16:55:08.476Z,28.20
2023-02-08T16:57:43.695Z,28.20
2023-02-08T17:00:31.086Z,28.20
2023-02-08T17:02:59.015Z,28.20
2023-02-08T17:05:30.087Z,28.20
2023-02-08T17:07:58.648Z,28.20
2023-02-08T17:10:30.412Z,28.20
2023-02-08T17:13:13.494Z,28.10
2023-02-08T17:15:50.147Z,28.10
2023-02-08T17:18:17.966Z,28.10
2023-02-08T17:20:45.550Z,28.10
2023-02-08T17:23:15.650Z,28.10
2023-02-08T17:25:44.599Z,28.10
2023-02-08T17:28:17.025Z,28.10
2023-02-08T17:30:45.301Z,28.10
2023-02-08T17:33:18.510Z,28.00
2023-02-08T17:35:47.394Z,28.00
2023-02-08T17:38:15.727Z,28.00
2023-02-08T17:40:43.990Z,28.00
2023-02-08T17:43:12.226Z,28.00
2023-02-08T17:45:41.085Z,28.00
2023-02-08T17:48:08.941Z,28.00
2023-02-08T17:50:36.657Z,28.00
2023-02-08T17:53:05.344Z,27.90
2023-02-08T17:55:32.946Z,27.90
2023-02-08T17:58:00.622Z,27.90
2023-02-08T18:00:28.227Z,27.90
2023-02-08T18:02:56.396Z,27.80
2023-02-08T18:05:25.391Z,27.80
2023-02-08T18:07:54.034Z,27.80
2023-02-08T18:10:21.939Z,27.80
2023-02-08T18:12:49.889Z,27.80
2023-02-08T18:15:20.220Z,27.80
2023-02-08T18:17:48.187Z,27.70
2023-02-08T18:20:16.104Z,27.70
2023-02-08T18:22:44.465Z,27.70
2023-02-08T18:25:13.417Z,27.70
2023-02-08T18:27:41.647Z,27.70
2023-02-08T18:30:10.136Z,27.60
2023-02-08T18:32:39.206Z,27.60
2023-02-08T18:35:07.950Z,27.60
2023-02-08T18:37:39.387Z,27.60
2023-02-08T18:40:09.148Z,27.60
2023-02-08T18:42:37.497Z,27.60
2023-02-08T18:45:07.494Z,27.60
2023-02-08T18:47:36.195Z,27.60
2023-02-08T18:50:05.291Z,27.50
2023-02-08T18:52:32.942Z,27.50
2023-02-08T18:55:00.570Z,27.50
2023-02-08T18:57:28.272Z,27.50
2023-02-08T18:59:56.312Z,27.50
2023-02-08T19:02:24.596Z,27.40
2023-02-08T19:04:52.613Z,27.40
2023-02-08T19:07:20.944Z,27.30
2023-02-08T19:09:48.562Z,27.30
2023-02-08T19:12:16.076Z,27.30
2023-02-08T19:14:44.156Z,27.30
2023-02-08T19:17:14.870Z,27.30
2023-02-08T19:19:43.929Z,27.30
2023-02-08T19:22:11.926Z,27.30
2023-02-08T19:24:39.493Z,27.30
2023-02-08T19:27:07.005Z,27.30
2023-02-08T19:29:36.184Z,27.20
2023-02-08T19:32:03.879Z,27.20
2023-02-08T19:34:31.454Z,27.20
2023-02-08T19:36:58.964Z,27.20
2023-02-08T19:39:27.436Z,27.20
2023-02-08T19:41:55.461Z,27.20
2023-02-08T19:44:23.150Z,27.10
2023-02-08T19:46:54.820Z,27.10
2023-02-08T19:49:24.294Z,27.10
2023-02-08T19:51:52.123Z,27.10
2023-02-08T19:54:20.032Z,27.10
2023-02-08T19:56:50.534Z,27.10
2023-02-08T19:59:22.533Z,27.10
2023-02-08T20:01:50.448Z,27.00
2023-02-08T20:04:18.100Z,27.00
2023-02-08T20:06:45.995Z,27.00
2023-02-08T20:09:15.715Z,27.00
2023-02-08T20:11:56.422Z,27.00
2023-02-08T20:14:24.762Z,27.00
2023-02-08T20:16:52.464Z,26.90
2023-02-08T20:19:20.029Z,26.90
2023-02-08T20:21:47.528Z,26.90
2023-02-08T20:24:15.200Z,26.90
2023-02-08T20:26:44.618Z,26.80
2023-02-08T20:29:12.799Z,26.80
2023-02-08T20:31:42.925Z,26.80
2023-02-08T20:34:12.830Z,26.80
2023-02-08T20:36:47.616Z,26.80
2023-02-08T20:39:20.874Z,26.80
2023-02-08T20:41:48.940Z,26.80
2023-02-08T20:44:17.666Z,26.80
2023-02-08T20:46:46.269Z,26.80
2023-02-08T20:49:15.583Z,26.70
2023-02-08T20:51:43.712Z,26.70
2023-02-08T20:54:11.810Z,26.70
2023-02-08T20:56:40.538Z,26.70
2023-02-08T20:59:09.239Z,26.70
2023-02-08T21:01:37.231Z,26.70
2023-02-08T21:04:05.331Z,26.70
2023-02-08T21:06:34.606Z,26.70
2023-02-08T21:09:14.136Z,26.70
2023-02-08T21:11:41.835Z,26.70
2023-02-08T21:14:21.355Z,26.70
2023-02-08T21:16:51.170Z,26.70
2023-02-08T21:19:26.271Z,26.70
2023-02-08T21:21:54.917Z,26.70
2023-02-08T21:24:24.166Z,26.70
2023-02-08T21:26:56.210Z,26.70
2023-02-08T21:29:24.188Z,26.70
2023-02-08T21:31:54.409Z,26.70
2023-02-08T21:34:22.304Z,26.70
2023-02-08T21:36:50.801Z,26.70
2023-02-08T21:39:19.276Z,26.70
2023-02-08T21:41:48.436Z,26.60
2023-02-08T21:44:15.987Z,26.60
2023-02-08T21:46:43.589Z,26.60
2023-02-08T21:49:29.960Z,26.60
2023-02-08T21:52:15.811Z,26.60
2023-02-08T21:54:44.569Z,26.50
2023-02-08T21:57:20.172Z,26.50
2023-02-08T21:59:48.798Z,26.50
2023-02-08T22:02:22.879Z,26.50
2023-02-08T22:04:50.818Z,26.40
2023-02-08T22:07:18.458Z,26.40
2023-02-08T22:09:46.029Z,26.40
2023-02-08T22:12:15.158Z,26.40
2023-02-08T22:14:43.216Z,26.40
2023-02-08T22:17:11.069Z,26.30
2023-02-08T22:19:39.462Z,26.40
2023-02-08T22:22:07.341Z,26.40
2023-02-08T22:24:35.495Z,26.40
2023-02-08T22:27:03.111Z,26.40
2023-02-08T22:29:30.713Z,26.40
2023-02-08T22:31:58.410Z,26.40
2023-02-08T22:34:27.864Z,26.40
2023-02-08T22:36:55.692Z,26.40
2023-02-08T22:39:23.453Z,26.40
2023-02-08T22:41:51.018Z,26.40
2023-02-08T22:44:18.525Z,26.40
2023-02-08T22:46:46.505Z,26.40
2023-02-08T22:49:14.172Z,26.40
2023-02-08T22:51:41.760Z,26.40
2023-02-08T22:54:10.088Z,26.40
2023-02-08T22:56:37.732Z,26.40
2023-02-08T22:59:05.297Z,26.40
2023-02-08T23:01:33.081Z,26.40
2023-02-08T23:04:01.117Z,26.30
2023-02-08T23:06:28.804Z,26.30
2023-02-08T23:08:56.505Z,26.30
2023-02-08T23:11:24.321Z,26.30
2023-02-08T23:13:51.944Z,26.30
2023-02-08T23:16:20.205Z,26.20
2023-02-08T23:18:48.052Z,26.20
2023-02-08T23:21:17.182Z,26.20
2023-02-08T23:23:45.595Z,26.20
2023-02-08T23:26:16.469Z,26.20
2023-02-08T23:28:44.141Z,26.20
2023-02-08T23:31:13.948Z,26.20
2023-02-08T23:33:41.868Z,26.20
2023-02-08T23:36:11.493Z,26.20
2023-02-08T23:38:39.343Z,26.10
2023-02-08T23:41:07.865Z,26.10
2023-02-08T23:43:36.299Z,26.10
2023-02-08T23:46:09.440Z,26.20
2023-02-08T23:48:39.255Z,26.20
2023-02-08T23:51:07.614Z,26.10
2023-02-08T23:53:35.954Z,26.20
2023-02-08T23:56:08.260Z,26.20
2023-02-08T23:58:37.292Z,26.10
